sensor_id;sensor_type;location;lat;lon;timestamp;pressure;altitude;pressure_sealevel;temperature;humidity
70133;BME280;57495;49.922;7.966;2023-03-14T00:01:16;98037.34;;;10.26;100.00
70133;BME280;57495;49.922;7.966;2023-03-14T00:03:19;98037.34;;;10.26;100.00
70133;BME280;57495;49.922;7.966;2023-03-14T00:05:20;98045.25;;;10.19;100.00
70133;BME280;57495;49.922;7.966;2023-03-14T00:07:22;98038.78;;;10.29;100.00
70133;BME280;57495;49.922;7.966;2023-03-14T00:09:24;98047.19;;;10.25;100.00
70133;BME280;57495;49.922;7.966;2023-03-14T00:11:26;98036.03;;;10.37;100.00
70133;BME280;57495;49.922;7.966;2023-03-14T00:13:28;98019.44;;;10.26;100.00
70133;BME280;57495;49.922;7.966;2023-03-14T00:15:29;98024.28;;;10.16;100.00
70133;BME280;57495;49.922;7.966;2023-03-14T00:17:31;98010.06;;;10.31;100.00
70133;BME280;57495;49.922;7.966;2023-03-14T00:19:33;98028.28;;;10.27;100.00
70133;BME280;57495;49.922;7.966;2023-03-14T00:21:35;98031.53;;;10.22;100.00
70133;BME280;57495;49.922;7.966;2023-03-14T00:23:38;98023.16;;;10.25;100.00
70133;BME280;57495;49.922;7.966;2023-03-14T00:25:39;98015.34;;;10.24;100.00
70133;BME280;57495;49.922;7.966;2023-03-14T00:27:41;98016.72;;;10.20;100.00
70133;BME280;57495;49.922;7.966;2023-03-14T00:29:42;98009.00;;;10.10;100.00
70133;BME280;57495;49.922;7.966;2023-03-14T00:31:44;97988.88;;;10.07;100.00
70133;BME280;57495;49.922;7.966;2023-03-14T00:33:45;97976.53;;;10.06;100.00
70133;BME280;57495;49.922;7.966;2023-03-14T00:35:54;97972.75;;;10.01;100.00
70133;BME280;57495;49.922;7.966;2023-03-14T00:37:56;97974.16;;;9.97;100.00
70133;BME280;57495;49.922;7.966;2023-03-14T00:39:57;97978.88;;;9.95;100.00
70133;BME280;57495;49.922;7.966;2023-03-14T00:41:58;97970.88;;;9.95;100.00
70133;BME280;57495;49.922;7.966;2023-03-14T00:44:00;97954.13;;;9.86;100.00
70133;BME280;57495;49.922;7.966;2023-03-14T00:46:01;97954.66;;;9.96;100.00
70133;BME280;57495;49.922;7.966;2023-03-14T00:48:03;97990.09;;;9.90;100.00
70133;BME280;57495;49.922;7.966;2023-03-14T00:50:05;97967.19;;;9.96;100.00
70133;BME280;57495;49.922;7.966;2023-03-14T00:52:09;97979.13;;;10.00;100.00
70133;BME280;57495;49.922;7.966;2023-03-14T00:54:10;97986.50;;;9.98;100.00
70133;BME280;57495;49.922;7.966;2023-03-14T00:56:12;97984.84;;;9.97;100.00
70133;BME280;57495;49.922;7.966;2023-03-14T00:58:16;97986.88;;;9.95;100.00
70133;BME280;57495;49.922;7.966;2023-03-14T01:00:18;97985.22;;;9.94;100.00
70133;BME280;57495;49.922;7.966;2023-03-14T01:02:19;98003.53;;;9.97;100.00
70133;BME280;57495;49.922;7.966;2023-03-14T01:04:21;97984.22;;;9.95;100.00
70133;BME280;57495;49.922;7.966;2023-03-14T01:06:25;97986.63;;;9.90;100.00
70133;BME280;57495;49.922;7.966;2023-03-14T01:08:28;97980.53;;;9.96;100.00
70133;BME280;57495;49.922;7.966;2023-03-14T01:10:29;97975.19;;;9.96;100.00
70133;BME280;57495;49.922;7.966;2023-03-14T01:12:31;97966.28;;;9.89;100.00
70133;BME280;57495;49.922;7.966;2023-03-14T01:14:32;97974.66;;;9.85;100.00
70133;BME280;57495;49.922;7.966;2023-03-14T01:16:34;97964.81;;;9.86;100.00
70133;BME280;57495;49.922;7.966;2023-03-14T01:18:37;97982.81;;;9.77;100.00
70133;BME280;57495;49.922;7.966;2023-03-14T01:20:38;97965.88;;;9.70;100.00
70133;BME280;57495;49.922;7.966;2023-03-14T01:22:39;97968.75;;;9.68;100.00
70133;BME280;57495;49.922;7.966;2023-03-14T01:24:42;97980.22;;;9.69;100.00
70133;BME280;57495;49.922;7.966;2023-03-14T01:26:44;97972.88;;;9.71;100.00
70133;BME280;57495;49.922;7.966;2023-03-14T01:28:46;97981.50;;;9.73;100.00
70133;BME280;57495;49.922;7.966;2023-03-14T01:30:47;97970.81;;;9.73;100.00
70133;BME280;57495;49.922;7.966;2023-03-14T01:32:48;97985.94;;;9.66;100.00
70133;BME280;57495;49.922;7.966;2023-03-14T01:34:50;97968.78;;;9.75;100.00
70133;BME280;57495;49.922;7.966;2023-03-14T01:36:51;97961.69;;;9.82;100.00
70133;BME280;57495;49.922;7.966;2023-03-14T01:38:53;97957.69;;;9.72;100.00
70133;BME280;57495;49.922;7.966;2023-03-14T01:40:56;97954.81;;;9.73;100.00
70133;BME280;57495;49.922;7.966;2023-03-14T01:43:05;97949.47;;;9.73;100.00
70133;BME280;57495;49.922;7.966;2023-03-14T01:47:41;97946.19;;;9.71;100.00
70133;BME280;57495;49.922;7.966;2023-03-14T01:49:44;97936.53;;;9.70;100.00
70133;BME280;57495;49.922;7.966;2023-03-14T01:51:50;97935.75;;;9.76;100.00
70133;BME280;57495;49.922;7.966;2023-03-14T01:54:02;97945.63;;;9.76;100.00
70133;BME280;57495;49.922;7.966;2023-03-14T01:56:10;97934.56;;;9.79;100.00
70133;BME280;57495;49.922;7.966;2023-03-14T01:58:13;97919.94;;;9.75;100.00
70133;BME280;57495;49.922;7.966;2023-03-14T02:00:18;97927.56;;;9.78;100.00
70133;BME280;57495;49.922;7.966;2023-03-14T02:02:22;97916.81;;;9.71;100.00
70133;BME280;57495;49.922;7.966;2023-03-14T02:04:28;97908.38;;;9.67;100.00
70133;BME280;57495;49.922;7.966;2023-03-14T02:06:35;97900.53;;;9.66;100.00
70133;BME280;57495;49.922;7.966;2023-03-14T02:08:40;97896.25;;;9.65;100.00
70133;BME280;57495;49.922;7.966;2023-03-14T02:10:43;97901.00;;;9.70;100.00
70133;BME280;57495;49.922;7.966;2023-03-14T02:12:47;97907.47;;;9.60;100.00
70133;BME280;57495;49.922;7.966;2023-03-14T02:14:49;97909.94;;;9.62;100.00
70133;BME280;57495;49.922;7.966;2023-03-14T02:16:50;97888.88;;;9.67;100.00
70133;BME280;57495;49.922;7.966;2023-03-14T02:18:52;97874.44;;;9.61;100.00
70133;BME280;57495;49.922;7.966;2023-03-14T02:21:00;97892.34;;;9.67;100.00
70133;BME280;57495;49.922;7.966;2023-03-14T02:23:03;97871.41;;;9.64;100.00
70133;BME280;57495;49.922;7.966;2023-03-14T02:25:08;97856.97;;;9.59;100.00
70133;BME280;57495;49.922;7.966;2023-03-14T02:27:15;97852.91;;;9.63;100.00
70133;BME280;57495;49.922;7.966;2023-03-14T02:29:17;97850.97;;;9.57;100.00
70133;BME280;57495;49.922;7.966;2023-03-14T02:31:19;97841.09;;;9.72;100.00
70133;BME280;57495;49.922;7.966;2023-03-14T02:33:22;97850.34;;;9.76;100.00
70133;BME280;57495;49.922;7.966;2023-03-14T02:35:27;97870.63;;;9.71;100.00
70133;BME280;57495;49.922;7.966;2023-03-14T02:37:36;97874.38;;;9.76;100.00
70133;BME280;57495;49.922;7.966;2023-03-14T02:39:40;97850.44;;;9.61;100.00
70133;BME280;57495;49.922;7.966;2023-03-14T02:41:43;97837.28;;;9.60;100.00
70133;BME280;57495;49.922;7.966;2023-03-14T02:43:46;97878.78;;;9.62;100.00
70133;BME280;57495;49.922;7.966;2023-03-14T02:45:49;97875.53;;;9.67;100.00
70133;BME280;57495;49.922;7.966;2023-03-14T02:47:54;97860.13;;;9.47;100.00
70133;BME280;57495;49.922;7.966;2023-03-14T02:50:02;97863.69;;;9.33;100.00
70133;BME280;57495;49.922;7.966;2023-03-14T02:52:05;97856.09;;;9.15;100.00
70133;BME280;57495;49.922;7.966;2023-03-14T02:54:07;97848.28;;;9.14;100.00
70133;BME280;57495;49.922;7.966;2023-03-14T02:56:09;97840.47;;;9.12;100.00
70133;BME280;57495;49.922;7.966;2023-03-14T02:58:11;97843.88;;;9.06;100.00
70133;BME280;57495;49.922;7.966;2023-03-14T03:00:14;97839.50;;;8.98;100.00
70133;BME280;57495;49.922;7.966;2023-03-14T03:02:16;97845.34;;;9.08;100.00
70133;BME280;57495;49.922;7.966;2023-03-14T03:04:18;97848.41;;;9.05;100.00
70133;BME280;57495;49.922;7.966;2023-03-14T03:06:19;97850.88;;;9.07;100.00
70133;BME280;57495;49.922;7.966;2023-03-14T03:08:22;97850.31;;;9.12;100.00
70133;BME280;57495;49.922;7.966;2023-03-14T03:10:24;97836.78;;;9.13;100.00
70133;BME280;57495;49.922;7.966;2023-03-14T03:12:25;97824.53;;;9.19;100.00
70133;BME280;57495;49.922;7.966;2023-03-14T03:14:27;97831.41;;;9.28;100.00
70133;BME280;57495;49.922;7.966;2023-03-14T03:16:30;97824.69;;;9.32;100.00
70133;BME280;57495;49.922;7.966;2023-03-14T03:18:31;97830.91;;;9.39;100.00
70133;BME280;57495;49.922;7.966;2023-03-14T03:20:32;97823.28;;;9.36;100.00
70133;BME280;57495;49.922;7.966;2023-03-14T03:22:34;97836.13;;;9.26;100.00
70133;BME280;57495;49.922;7.966;2023-03-14T03:24:36;97811.09;;;9.27;100.00
70133;BME280;57495;49.922;7.966;2023-03-14T03:26:37;97815.88;;;9.32;100.00
70133;BME280;57495;49.922;7.966;2023-03-14T03:28:39;97809.06;;;9.29;100.00
70133;BME280;57495;49.922;7.966;2023-03-14T03:30:41;97810.31;;;9.12;100.00
70133;BME280;57495;49.922;7.966;2023-03-14T03:32:44;97824.47;;;9.12;100.00
70133;BME280;57495;49.922;7.966;2023-03-14T03:34:46;97803.53;;;9.09;100.00
70133;BME280;57495;49.922;7.966;2023-03-14T03:36:47;97806.38;;;9.07;100.00
70133;BME280;57495;49.922;7.966;2023-03-14T03:38:49;97800.41;;;9.27;100.00
70133;BME280;57495;49.922;7.966;2023-03-14T03:40:50;97798.78;;;9.26;100.00
70133;BME280;57495;49.922;7.966;2023-03-14T03:42:51;97804.94;;;9.26;100.00
70133;BME280;57495;49.922;7.966;2023-03-14T03:44:53;97791.78;;;9.25;100.00
70133;BME280;57495;49.922;7.966;2023-03-14T03:46:54;97782.91;;;9.39;100.00
70133;BME280;57495;49.922;7.966;2023-03-14T03:48:59;97781.75;;;9.27;100.00
70133;BME280;57495;49.922;7.966;2023-03-14T03:51:01;97786.00;;;9.21;100.00
70133;BME280;57495;49.922;7.966;2023-03-14T03:53:03;97785.19;;;9.21;100.00
70133;BME280;57495;49.922;7.966;2023-03-14T03:55:04;97791.78;;;9.25;100.00
70133;BME280;57495;49.922;7.966;2023-03-14T03:57:06;97777.00;;;9.22;100.00
70133;BME280;57495;49.922;7.966;2023-03-14T03:59:07;97773.13;;;9.25;100.00
70133;BME280;57495;49.922;7.966;2023-03-14T04:01:10;97782.97;;;9.24;100.00
70133;BME280;57495;49.922;7.966;2023-03-14T04:03:11;97789.81;;;9.34;100.00
70133;BME280;57495;49.922;7.966;2023-03-14T04:05:14;97791.53;;;9.41;100.00
70133;BME280;57495;49.922;7.966;2023-03-14T04:07:16;97790.38;;;9.29;100.00
70133;BME280;57495;49.922;7.966;2023-03-14T04:09:17;97785.81;;;9.23;100.00
70133;BME280;57495;49.922;7.966;2023-03-14T04:11:19;97786.84;;;9.22;100.00
70133;BME280;57495;49.922;7.966;2023-03-14T04:13:20;97800.19;;;9.22;100.00
70133;BME280;57495;49.922;7.966;2023-03-14T04:15:21;97797.56;;;9.28;100.00
70133;BME280;57495;49.922;7.966;2023-03-14T04:17:23;97802.44;;;9.25;100.00
70133;BME280;57495;49.922;7.966;2023-03-14T04:19:24;97802.84;;;9.22;100.00
70133;BME280;57495;49.922;7.966;2023-03-14T04:21:27;97803.66;;;9.22;100.00
70133;BME280;57495;49.922;7.966;2023-03-14T04:23:28;97802.72;;;9.30;100.00
70133;BME280;57495;49.922;7.966;2023-03-14T04:25:30;97792.38;;;9.20;100.00
70133;BME280;57495;49.922;7.966;2023-03-14T04:27:31;97796.38;;;9.31;100.00
70133;BME280;57495;49.922;7.966;2023-03-14T04:29:33;97794.97;;;9.35;100.00
70133;BME280;57495;49.922;7.966;2023-03-14T04:31:34;97778.19;;;9.41;100.00
70133;BME280;57495;49.922;7.966;2023-03-14T04:33:36;97784.03;;;9.30;100.00
70133;BME280;57495;49.922;7.966;2023-03-14T04:35:38;97779.59;;;9.37;100.00
70133;BME280;57495;49.922;7.966;2023-03-14T04:37:40;97783.28;;;9.36;100.00
70133;BME280;57495;49.922;7.966;2023-03-14T04:39:43;97780.75;;;9.28;100.00
70133;BME280;57495;49.922;7.966;2023-03-14T04:41:44;97780.66;;;9.21;100.00
70133;BME280;57495;49.922;7.966;2023-03-14T04:43:46;97789.25;;;9.17;100.00
70133;BME280;57495;49.922;7.966;2023-03-14T04:45:47;97787.59;;;9.16;100.00
70133;BME280;57495;49.922;7.966;2023-03-14T04:47:49;97778.69;;;9.08;100.00
70133;BME280;57495;49.922;7.966;2023-03-14T04:49:50;97794.94;;;9.14;100.00
70133;BME280;57495;49.922;7.966;2023-03-14T04:51:52;97797.63;;;9.14;100.00
70133;BME280;57495;49.922;7.966;2023-03-14T04:53:54;97784.72;;;9.17;100.00
70133;BME280;57495;49.922;7.966;2023-03-14T04:55:56;97788.28;;;9.24;100.00
70133;BME280;57495;49.922;7.966;2023-03-14T04:57:57;97793.00;;;9.22;100.00
70133;BME280;57495;49.922;7.966;2023-03-14T04:59:59;97775.78;;;9.25;100.00
70133;BME280;57495;49.922;7.966;2023-03-14T05:02:00;97778.22;;;9.20;100.00
70133;BME280;57495;49.922;7.966;2023-03-14T05:04:02;97766.69;;;9.19;100.00
70133;BME280;57495;49.922;7.966;2023-03-14T05:06:04;97778.63;;;9.23;100.00
70133;BME280;57495;49.922;7.966;2023-03-14T05:08:06;97767.97;;;9.23;100.00
70133;BME280;57495;49.922;7.966;2023-03-14T05:10:10;97762.84;;;9.22;100.00
70133;BME280;57495;49.922;7.966;2023-03-14T05:12:11;97762.59;;;9.17;100.00
70133;BME280;57495;49.922;7.966;2023-03-14T05:14:13;97755.66;;;9.22;100.00
70133;BME280;57495;49.922;7.966;2023-03-14T05:16:14;97757.63;;;9.14;100.00
70133;BME280;57495;49.922;7.966;2023-03-14T05:18:16;97749.63;;;9.14;100.00
70133;BME280;57495;49.922;7.966;2023-03-14T05:20:18;97759.28;;;9.15;100.00
70133;BME280;57495;49.922;7.966;2023-03-14T05:22:19;97751.41;;;9.06;100.00
70133;BME280;57495;49.922;7.966;2023-03-14T05:24:21;97749.69;;;9.20;100.00
70133;BME280;57495;49.922;7.966;2023-03-14T05:26:24;97764.47;;;9.23;100.00
70133;BME280;57495;49.922;7.966;2023-03-14T05:28:25;97744.47;;;9.12;100.00
70133;BME280;57495;49.922;7.966;2023-03-14T05:30:27;97739.09;;;9.05;100.00
70133;BME280;57495;49.922;7.966;2023-03-14T05:32:31;97747.84;;;8.99;100.00
70133;BME280;57495;49.922;7.966;2023-03-14T05:34:33;97744.66;;;8.89;100.00
70133;BME280;57495;49.922;7.966;2023-03-14T05:36:34;97752.84;;;8.87;100.00
70133;BME280;57495;49.922;7.966;2023-03-14T05:38:36;97763.88;;;8.84;100.00
70133;BME280;57495;49.922;7.966;2023-03-14T05:40:37;97758.47;;;8.78;100.00
70133;BME280;57495;49.922;7.966;2023-03-14T05:42:40;97761.97;;;8.78;100.00
70133;BME280;57495;49.922;7.966;2023-03-14T05:44:41;97765.22;;;8.74;100.00
70133;BME280;57495;49.922;7.966;2023-03-14T05:46:43;97771.41;;;8.81;100.00
70133;BME280;57495;49.922;7.966;2023-03-14T05:48:44;97763.81;;;8.78;100.00
70133;BME280;57495;49.922;7.966;2023-03-14T05:50:45;97773.44;;;8.79;100.00
70133;BME280;57495;49.922;7.966;2023-03-14T05:52:47;97778.59;;;8.80;100.00
70133;BME280;57495;49.922;7.966;2023-03-14T05:54:48;97771.16;;;8.76;100.00
70133;BME280;57495;49.922;7.966;2023-03-14T05:56:50;97770.78;;;8.79;100.00
70133;BME280;57495;49.922;7.966;2023-03-14T05:58:52;97766.84;;;8.75;100.00
70133;BME280;57495;49.922;7.966;2023-03-14T06:00:54;97755.63;;;8.79;100.00
70133;BME280;57495;49.922;7.966;2023-03-14T06:02:55;97756.81;;;8.77;100.00
70133;BME280;57495;49.922;7.966;2023-03-14T06:04:57;97763.88;;;8.84;100.00
70133;BME280;57495;49.922;7.966;2023-03-14T06:06:58;97761.91;;;8.93;100.00
70133;BME280;57495;49.922;7.966;2023-03-14T06:08:59;97758.75;;;9.04;100.00
70133;BME280;57495;49.922;7.966;2023-03-14T06:11:03;97765.50;;;9.00;100.00
70133;BME280;57495;49.922;7.966;2023-03-14T06:13:04;97767.56;;;9.05;100.00
70133;BME280;57495;49.922;7.966;2023-03-14T06:15:08;97760.78;;;9.02;100.00
70133;BME280;57495;49.922;7.966;2023-03-14T06:17:10;97757.34;;;9.08;100.00
70133;BME280;57495;49.922;7.966;2023-03-14T06:19:11;97768.03;;;9.08;100.00
70133;BME280;57495;49.922;7.966;2023-03-14T06:21:12;97763.72;;;9.07;100.00
70133;BME280;57495;49.922;7.966;2023-03-14T06:23:14;97753.78;;;9.16;100.00
70133;BME280;57495;49.922;7.966;2023-03-14T06:25:16;97751.09;;;9.16;100.00
70133;BME280;57495;49.922;7.966;2023-03-14T06:27:17;97756.63;;;9.15;100.00
70133;BME280;57495;49.922;7.966;2023-03-14T06:29:18;97763.41;;;9.17;100.00
70133;BME280;57495;49.922;7.966;2023-03-14T06:31:21;97766.66;;;9.13;100.00
70133;BME280;57495;49.922;7.966;2023-03-14T06:33:23;97754.78;;;9.15;100.00
70133;BME280;57495;49.922;7.966;2023-03-14T06:35:24;97748.63;;;9.15;100.00
70133;BME280;57495;49.922;7.966;2023-03-14T06:37:26;97741.06;;;9.18;100.00
70133;BME280;57495;49.922;7.966;2023-03-14T06:39:27;97740.47;;;9.23;100.00
70133;BME280;57495;49.922;7.966;2023-03-14T06:41:29;97739.28;;;9.25;100.00
70133;BME280;57495;49.922;7.966;2023-03-14T06:43:30;97738.06;;;9.28;100.00
70133;BME280;57495;49.922;7.966;2023-03-14T06:45:32;97732.94;;;9.26;100.00
70133;BME280;57495;49.922;7.966;2023-03-14T06:47:35;97728.38;;;9.20;100.00
70133;BME280;57495;49.922;7.966;2023-03-14T06:49:36;97741.38;;;9.30;100.00
70133;BME280;57495;49.922;7.966;2023-03-14T06:51:38;97728.84;;;9.31;100.00
70133;BME280;57495;49.922;7.966;2023-03-14T06:53:39;97734.38;;;9.29;100.00
70133;BME280;57495;49.922;7.966;2023-03-14T06:55:41;97728.81;;;9.24;100.00
70133;BME280;57495;49.922;7.966;2023-03-14T06:57:43;97737.19;;;9.21;100.00
70133;BME280;57495;49.922;7.966;2023-03-14T06:59:45;97749.88;;;9.19;100.00
70133;BME280;57495;49.922;7.966;2023-03-14T07:01:46;97758.88;;;9.18;100.00
70133;BME280;57495;49.922;7.966;2023-03-14T07:03:49;97747.03;;;9.20;100.00
70133;BME280;57495;49.922;7.966;2023-03-14T07:05:51;97751.09;;;9.16;100.00
70133;BME280;57495;49.922;7.966;2023-03-14T07:07:52;97741.63;;;9.14;100.00
70133;BME280;57495;49.922;7.966;2023-03-14T07:09:54;97756.63;;;9.15;100.00
70133;BME280;57495;49.922;7.966;2023-03-14T07:11:55;97755.59;;;9.16;100.00
70133;BME280;57495;49.922;7.966;2023-03-14T07:13:57;97751.91;;;9.17;100.00
70133;BME280;57495;49.922;7.966;2023-03-14T07:15:58;97757.25;;;9.17;100.00
70133;BME280;57495;49.922;7.966;2023-03-14T07:18:00;97758.06;;;9.17;100.00
70133;BME280;57495;49.922;7.966;2023-03-14T07:20:03;97761.56;;;9.18;100.00
70133;BME280;57495;49.922;7.966;2023-03-14T07:22:05;97753.81;;;9.23;100.00
70133;BME280;57495;49.922;7.966;2023-03-14T07:24:07;97743.97;;;9.23;100.00
70133;BME280;57495;49.922;7.966;2023-03-14T07:26:08;97760.81;;;9.24;100.00
70133;BME280;57495;49.922;7.966;2023-03-14T07:28:10;97740.13;;;9.26;100.00
70133;BME280;57495;49.922;7.966;2023-03-14T07:30:12;97742.63;;;9.34;100.00
70133;BME280;57495;49.922;7.966;2023-03-14T07:32:13;97742.00;;;9.32;100.00
70133;BME280;57495;49.922;7.966;2023-03-14T07:34:15;97742.19;;;9.31;100.00
70133;BME280;57495;49.922;7.966;2023-03-14T07:36:18;97742.00;;;9.32;100.00
70133;BME280;57495;49.922;7.966;2023-03-14T07:38:19;97743.47;;;9.35;100.00
70133;BME280;57495;49.922;7.966;2023-03-14T07:40:21;97750.81;;;9.33;100.00
70133;BME280;57495;49.922;7.966;2023-03-14T07:42:22;97749.44;;;9.37;100.00
70133;BME280;57495;49.922;7.966;2023-03-14T07:44:24;97750.53;;;9.42;100.00
70133;BME280;57495;49.922;7.966;2023-03-14T07:46:25;97742.25;;;9.37;100.00
70133;BME280;57495;49.922;7.966;2023-03-14T07:48:27;97748.81;;;9.35;100.00
70133;BME280;57495;49.922;7.966;2023-03-14T07:50:28;97738.38;;;9.40;100.00
70133;BME280;57495;49.922;7.966;2023-03-14T07:52:31;97743.72;;;9.40;100.00
70133;BME280;57495;49.922;7.966;2023-03-14T07:54:32;97758.34;;;9.44;100.00
70133;BME280;57495;49.922;7.966;2023-03-14T07:56:34;97748.59;;;9.36;100.00
70133;BME280;57495;49.922;7.966;2023-03-14T07:58:35;97749.38;;;9.30;100.00
70133;BME280;57495;49.922;7.966;2023-03-14T08:00:36;97762.34;;;9.33;100.00
70133;BME280;57495;49.922;7.966;2023-03-14T08:02:38;97759.66;;;9.33;100.00
70133;BME280;57495;49.922;7.966;2023-03-14T08:04:40;97753.56;;;9.39;100.00
70133;BME280;57495;49.922;7.966;2023-03-14T08:06:41;97767.28;;;9.36;100.00
70133;BME280;57495;49.922;7.966;2023-03-14T08:08:44;97751.25;;;9.36;100.00
70133;BME280;57495;49.922;7.966;2023-03-14T08:10:45;97748.81;;;9.35;100.00
70133;BME280;57495;49.922;7.966;2023-03-14T08:12:47;97750.63;;;9.34;100.00
70133;BME280;57495;49.922;7.966;2023-03-14T08:14:49;97747.72;;;9.29;100.00
70133;BME280;57495;49.922;7.966;2023-03-14T08:16:50;97750.63;;;9.34;100.00
70133;BME280;57495;49.922;7.966;2023-03-14T08:18:52;97743.25;;;9.36;100.00
70133;BME280;57495;49.922;7.966;2023-03-14T08:20:53;97746.16;;;9.35;100.00
70133;BME280;57495;49.922;7.966;2023-03-14T08:22:55;97749.63;;;9.35;100.00
70133;BME280;57495;49.922;7.966;2023-03-14T08:24:59;97751.66;;;9.33;100.00
70133;BME280;57495;49.922;7.966;2023-03-14T08:27:00;97756.66;;;9.43;100.00
70133;BME280;57495;49.922;7.966;2023-03-14T08:29:01;97758.25;;;9.37;100.00
70133;BME280;57495;49.922;7.966;2023-03-14T08:31:04;97752.13;;;9.37;100.00
70133;BME280;57495;49.922;7.966;2023-03-14T08:33:06;97750.91;;;9.39;100.00
70133;BME280;57495;49.922;7.966;2023-03-14T08:35:08;97763.22;;;9.40;100.00
70133;BME280;57495;49.922;7.966;2023-03-14T08:37:10;97755.84;;;9.42;100.00
70133;BME280;57495;49.922;7.966;2023-03-14T08:39:11;97753.03;;;9.51;100.00
70133;BME280;57495;49.922;7.966;2023-03-14T08:41:14;97761.66;;;9.53;100.00
70133;BME280;57495;49.922;7.966;2023-03-14T08:43:15;97752.25;;;9.57;100.00
70133;BME280;57495;49.922;7.966;2023-03-14T08:45:17;97763.16;;;9.55;100.00
70133;BME280;57495;49.922;7.966;2023-03-14T08:47:19;97762.56;;;9.60;100.00
70133;BME280;57495;49.922;7.966;2023-03-14T08:49:20;97764.66;;;9.64;100.00
70133;BME280;57495;49.922;7.966;2023-03-14T08:51:22;97759.75;;;9.68;100.00
70133;BME280;57495;49.922;7.966;2023-03-14T08:53:23;97765.75;;;9.77;100.00
70133;BME280;57495;49.922;7.966;2023-03-14T08:55:25;97775.88;;;9.81;100.00
70133;BME280;57495;49.922;7.966;2023-03-14T08:57:28;97767.88;;;9.81;100.00
70133;BME280;57495;49.922;7.966;2023-03-14T08:59:30;97787.81;;;9.85;100.00
70133;BME280;57495;49.922;7.966;2023-03-14T09:01:31;97776.50;;;9.83;100.00
70133;BME280;57495;49.922;7.966;2023-03-14T09:03:33;97782.63;;;9.77;100.00
70133;BME280;57495;49.922;7.966;2023-03-14T09:05:34;97779.16;;;9.83;100.00
70133;BME280;57495;49.922;7.966;2023-03-14T09:07:36;97774.63;;;9.77;100.00
70133;BME280;57495;49.922;7.966;2023-03-14T09:09:38;97778.09;;;9.78;100.00
70133;BME280;57495;49.922;7.966;2023-03-14T09:11:39;97782.22;;;9.80;100.00
70133;BME280;57495;49.922;7.966;2023-03-14T09:13:42;97783.88;;;9.81;100.00
70133;BME280;57495;49.922;7.966;2023-03-14T09:15:43;97784.50;;;9.83;100.00
70133;BME280;57495;49.922;7.966;2023-03-14T09:17:45;97779.16;;;9.83;100.00
70133;BME280;57495;49.922;7.966;2023-03-14T09:19:46;97771.19;;;9.90;100.00
70133;BME280;57495;49.922;7.966;2023-03-14T09:21:48;97772.69;;;9.99;100.00
70133;BME280;57495;49.922;7.966;2023-03-14T09:23:49;97781.81;;;10.05;100.00
70133;BME280;57495;49.922;7.966;2023-03-14T09:25:54;97775.41;;;10.06;100.00
70133;BME280;57495;49.922;7.966;2023-03-14T09:27:55;97770.31;;;10.11;100.00
70133;BME280;57495;49.922;7.966;2023-03-14T09:29:58;97772.63;;;10.14;100.00
70133;BME280;57495;49.922;7.966;2023-03-14T09:32:00;97774.06;;;10.17;100.00
70133;BME280;57495;49.922;7.966;2023-03-14T09:34:01;97773.88;;;10.18;100.00
70133;BME280;57495;49.922;7.966;2023-03-14T09:36:03;97785.19;;;10.20;100.00
70133;BME280;57495;49.922;7.966;2023-03-14T09:38:05;97789.09;;;10.24;100.00
70133;BME280;57495;49.922;7.966;2023-03-14T09:40:11;97788.56;;;10.36;100.00
70133;BME280;57495;49.922;7.966;2023-03-14T09:42:16;97810.00;;;10.42;100.00
70133;BME280;57495;49.922;7.966;2023-03-14T09:44:21;97798.28;;;10.43;100.00
70133;BME280;57495;49.922;7.966;2023-03-14T09:46:26;97777.53;;;10.45;100.00
70133;BME280;57495;49.922;7.966;2023-03-14T09:48:31;97783.28;;;10.49;100.00
70133;BME280;57495;49.922;7.966;2023-03-14T09:50:41;97776.75;;;10.58;100.00
70133;BME280;57495;49.922;7.966;2023-03-14T09:52:46;97783.38;;;10.62;100.00
70133;BME280;57495;49.922;7.966;2023-03-14T09:54:50;97788.31;;;10.66;99.81
70133;BME280;57495;49.922;7.966;2023-03-14T09:56:53;97790.41;;;10.77;100.00
70133;BME280;57495;49.922;7.966;2023-03-14T09:58:58;97781.38;;;10.78;100.00
70133;BME280;57495;49.922;7.966;2023-03-14T10:01:00;97773.94;;;10.73;100.00
70133;BME280;57495;49.922;7.966;2023-03-14T10:03:19;97776.84;;;10.72;100.00
70133;BME280;57495;49.922;7.966;2023-03-14T10:05:24;97776.03;;;10.78;100.00
70133;BME280;57495;49.922;7.966;2023-03-14T10:07:28;97775.00;;;10.72;100.00
70133;BME280;57495;49.922;7.966;2023-03-14T10:09:29;97770.84;;;10.70;100.00
70133;BME280;57495;49.922;7.966;2023-03-14T10:11:31;97773.75;;;10.68;100.00
70133;BME280;57495;49.922;7.966;2023-03-14T10:13:32;97771.47;;;10.65;100.00
70133;BME280;57495;49.922;7.966;2023-03-14T10:15:34;97774.72;;;10.60;100.00
70133;BME280;57495;49.922;7.966;2023-03-14T10:17:40;97770.22;;;10.61;100.00
70133;BME280;57495;49.922;7.966;2023-03-14T10:19:57;97772.28;;;10.66;100.00
70133;BME280;57495;49.922;7.966;2023-03-14T10:22:00;97782.97;;;10.66;100.00
70133;BME280;57495;49.922;7.966;2023-03-14T10:24:19;97773.75;;;10.68;100.00
70133;BME280;57495;49.922;7.966;2023-03-14T10:26:24;97773.94;;;10.73;100.00
70133;BME280;57495;49.922;7.966;2023-03-14T10:28:30;97786.50;;;10.73;100.00
70133;BME280;57495;49.922;7.966;2023-03-14T10:30:39;97794.91;;;10.70;100.00
70133;BME280;57495;49.922;7.966;2023-03-14T10:32:45;97787.94;;;10.69;100.00
70133;BME280;57495;49.922;7.966;2023-03-14T10:35:21;97782.97;;;10.66;100.00
70133;BME280;57495;49.922;7.966;2023-03-14T10:37:24;97788.50;;;10.64;100.00
70133;BME280;57495;49.922;7.966;2023-03-14T10:39:32;97795.28;;;10.60;100.00
70133;BME280;57495;49.922;7.966;2023-03-14T10:41:39;97789.94;;;10.60;100.00
70133;BME280;57495;49.922;7.966;2023-03-14T10:43:41;97797.75;;;10.61;100.00
70133;BME280;57495;49.922;7.966;2023-03-14T10:45:44;97800.25;;;10.70;100.00
70133;BME280;57495;49.922;7.966;2023-03-14T10:47:49;97801.53;;;10.80;100.00
70133;BME280;57495;49.922;7.966;2023-03-14T10:49:51;97792.50;;;10.88;100.00